Time;durP1;ratioP1;P1;durP2;ratioP2;P2;SDS_P1;SDS_P2;PMS_P1;PMS_P2;Temp;Humidity;BMP_temperature;BMP_pressure;BME280_temperature;BME280_humidity;BME280_pressure;Samples;Min_cycle;Max_cycle;Signal;HPM_P1;HPM_P2
2021/05/21 00:02:12;;;;;;;2.35;0.95;;;15.00;72.00;;;;;;4918297;29;20039;-75
2021/05/21 00:04:37;;;;;;;1.77;1.00;;;14.90;72.10;;;;;;4918581;29;20468;-75
2021/05/21 00:07:03;;;;;;;1.60;0.95;;;14.90;72.00;;;;;;4935227;29;20106;-75
2021/05/21 00:09:29;;;;;;;2.03;0.70;;;14.90;72.10;;;;;;4935353;29;20114;-75
2021/05/21 00:11:54;;;;;;;1.75;0.95;;;14.90;72.50;;;;;;4935661;29;20464;-74
2021/05/21 00:14:20;;;;;;;1.88;0.90;;;14.90;72.30;;;;;;4917948;29;20015;-75
2021/05/21 00:16:46;;;;;;;1.88;1.02;;;14.90;72.20;;;;;;4935610;29;20027;-75
2021/05/21 00:19:12;;;;;;;1.83;0.85;;;15.00;72.40;;;;;;4917764;29;20043;-74
2021/05/21 00:21:38;;;;;;;3.58;1.10;;;15.00;72.10;;;;;;4935547;29;20028;-73
2021/05/21 00:24:04;;;;;;;2.38;0.95;;;15.00;72.10;;;;;;4917555;29;20151;-75
2021/05/21 00:26:30;;;;;;;3.40;1.13;;;14.90;72.20;;;;;;4935450;29;20027;-75
2021/05/21 00:28:56;;;;;;;0.80;0.70;;;14.90;72.50;;;;;;4934875;29;20032;-74
2021/05/21 00:31:22;;;;;;;1.42;1.10;;;14.90;72.30;;;;;;4934771;29;20070;-75
2021/05/21 00:33:49;;;;;;;1.15;0.98;;;14.90;72.60;;;;;;4935248;29;20051;-75
2021/05/21 00:36:15;;;;;;;2.10;1.00;;;15.00;72.70;;;;;;4934695;29;20024;-75
2021/05/21 00:38:41;;;;;;;2.58;1.10;;;14.90;72.90;;;;;;4918074;29;20042;-73
2021/05/21 00:41:07;;;;;;;3.33;0.80;;;14.90;73.10;;;;;;4917533;29;20035;-74
2021/05/21 00:43:32;;;;;;;2.97;0.90;;;14.90;74.90;;;;;;4918359;29;20020;-75
2021/05/21 00:46:00;;;;;;;1.38;0.90;;;14.90;76.30;;;;;;4935161;29;20066;-76
2021/05/21 00:48:25;;;;;;;2.05;1.08;;;14.90;77.70;;;;;;4918058;29;20023;-75
2021/05/21 00:50:51;;;;;;;3.47;0.90;;;14.90;77.10;;;;;;4934834;29;20039;-75
2021/05/21 00:53:19;;;;;;;1.70;0.93;;;14.90;79.00;;;;;;4934170;29;20492;-74
2021/05/21 00:55:45;;;;;;;2.97;1.02;;;14.90;79.40;;;;;;4934790;29;20385;-75
2021/05/21 00:58:11;;;;;;;2.95;1.00;;;14.90;79.20;;;;;;4917219;29;20039;-74
2021/05/21 01:00:37;;;;;;;1.55;1.15;;;14.90;87.70;;;;;;4934709;29;20059;-74
2021/05/21 01:03:02;;;;;;;1.20;0.85;;;14.90;87.60;;;;;;4934327;29;20072;-74
2021/05/21 01:05:28;;;;;;;3.22;1.10;;;14.90;86.00;;;;;;4934865;29;20036;-74
2021/05/21 01:07:54;;;;;;;1.55;0.80;;;14.90;86.80;;;;;;4934905;29;20046;-75
2021/05/21 01:10:19;;;;;;;4.22;1.00;;;14.90;86.70;;;;;;4934296;29;20377;-76
2021/05/21 01:12:45;;;;;;;3.53;0.85;;;14.60;91.10;;;;;;4934692;29;20093;-75
2021/05/21 01:15:12;;;;;;;1.17;0.70;;;14.70;91.10;;;;;;4934123;29;20059;-75
2021/05/21 01:17:38;;;;;;;2.60;1.10;;;14.80;91.50;;;;;;4934892;29;20023;-75
2021/05/21 01:20:07;;;;;;;1.95;0.93;;;14.90;89.30;;;;;;4934359;29;20038;-75
2021/05/21 01:22:33;;;;;;;1.98;1.00;;;14.90;90.30;;;;;;4917614;29;20023;-74
2021/05/21 01:24:59;;;;;;;1.88;1.25;;;14.90;87.60;;;;;;4917664;29;20024;-75
2021/05/21 01:27:25;;;;;;;1.98;1.38;;;14.70;92.20;;;;;;4917029;29;20460;-74
2021/05/21 01:29:51;;;;;;;1.85;0.93;;;14.70;91.00;;;;;;4917434;29;20034;-74
2021/05/21 01:32:16;;;;;;;3.92;1.05;;;14.70;91.50;;;;;;4934237;29;20028;-74
2021/05/21 01:34:42;;;;;;;2.22;0.80;;;14.80;90.80;;;;;;4917503;29;20031;-75
2021/05/21 01:37:18;;;;;;;2.50;1.00;;;14.80;90.40;;;;;;4933709;29;20034;-75
2021/05/21 01:39:44;;;;;;;2.03;1.00;;;14.70;92.40;;;;;;4917364;29;20036;-74
2021/05/21 01:42:14;;;;;;;3.58;1.20;;;14.70;91.60;;;;;;4937429;29;20032;-75
2021/05/21 01:44:41;;;;;;;1.43;0.90;;;14.70;90.30;;;;;;4938423;29;20035;-74
2021/05/21 01:47:09;;;;;;;2.30;1.00;;;14.70;90.50;;;;;;4937528;29;20079;-75
2021/05/21 01:49:35;;;;;;;2.80;1.00;;;14.80;86.40;;;;;;4938534;29;20035;-76
2021/05/21 01:52:01;;;;;;;2.90;1.33;;;14.80;84.60;;;;;;4921139;29;20134;-75
2021/05/21 01:54:28;;;;;;;1.35;0.90;;;14.90;83.80;;;;;;4937621;29;20073;-74
2021/05/21 01:56:55;;;;;;;1.33;0.77;;;14.90;82.20;;;;;;4938231;29;20015;-74
2021/05/21 01:59:25;;;;;;;2.55;1.00;;;14.90;81.20;;;;;;4937419;29;20039;-75
2021/05/21 02:01:52;;;;;;;2.63;1.08;;;14.90;80.40;;;;;;4937979;29;20024;-75
2021/05/21 02:04:44;;;;;;;1.60;1.00;;;14.90;81.00;;;;;;4920185;29;20031;-74
2021/05/21 02:07:12;;;;;;;1.67;1.05;;;14.90;80.60;;;;;;4934435;29;20044;-75
2021/05/21 02:09:47;;;;;;;2.25;0.90;;;14.90;80.00;;;;;;4937965;29;20115;-75
2021/05/21 02:12:13;;;;;;;2.28;0.85;;;14.90;79.50;;;;;;4937272;29;20083;-75
2021/05/21 02:14:38;;;;;;;3.53;1.00;;;14.90;79.40;;;;;;4921045;29;20024;-75
2021/05/21 02:17:04;;;;;;;2.22;0.85;;;14.90;78.60;;;;;;4920769;29;20032;-75
2021/05/21 02:19:30;;;;;;;2.58;1.05;;;14.90;77.80;;;;;;4937811;29;20055;-76
2021/05/21 02:21:56;;;;;;;2.47;1.27;;;14.90;78.50;;;;;;4937732;29;20379;-75
2021/05/21 02:24:22;;;;;;;3.65;1.20;;;14.80;79.50;;;;;;4920007;29;20105;-74
2021/05/21 02:26:47;;;;;;;5.82;1.60;;;14.60;80.70;;;;;;4920738;29;20019;-74
2021/05/21 02:29:13;;;;;;;4.55;1.55;;;14.50;81.70;;;;;;4937284;29;20032;-75
2021/05/21 02:31:38;;;;;;;5.93;1.92;;;14.40;82.40;;;;;;4937625;29;20028;-74
2021/05/21 02:34:04;;;;;;;7.85;1.70;;;14.20;82.70;;;;;;4920348;29;20460;-75
2021/05/21 02:36:30;;;;;;;7.80;1.48;;;14.10;83.40;;;;;;4936773;29;20030;-76
2021/05/21 02:38:55;;;;;;;7.30;2.08;;;14.10;82.80;;;;;;4937053;29;20024;-74
2021/05/21 02:41:21;;;;;;;7.05;2.03;;;14.00;83.10;;;;;;4919717;29;20039;-74
2021/05/21 02:43:47;;;;;;;11.65;2.33;;;14.00;83.30;;;;;;4920202;29;20027;-73
2021/05/21 02:46:13;;;;;;;9.50;2.03;;;13.90;85.10;;;;;;4936609;29;20059;-74
2021/05/21 02:48:38;;;;;;;18.27;3.13;;;13.60;87.70;;;;;;4919718;29;20055;-73
2021/05/21 02:51:04;;;;;;;11.02;2.20;;;13.50;89.80;;;;;;4937295;29;20372;-73
2021/05/21 02:53:30;;;;;;;18.75;2.78;;;13.20;91.00;;;;;;4921472;29;20051;-74
2021/05/21 02:55:55;;;;;;;16.45;2.67;;;12.90;91.70;;;;;;4937065;29;20036;-73
2021/05/21 02:58:21;;;;;;;10.32;1.80;;;12.70;92.50;;;;;;4936024;29;20036;-74
2021/05/21 03:00:47;;;;;;;13.13;2.28;;;12.60;93.10;;;;;;4935642;29;20511;-75
2021/05/21 03:03:13;;;;;;;11.13;2.25;;;12.40;93.40;;;;;;4935879;29;20026;-75
2021/05/21 03:05:39;;;;;;;22.55;2.03;;;12.30;94.00;;;;;;4936891;29;20024;-74
2021/05/21 03:08:04;;;;;;;8.93;2.20;;;12.20;94.00;;;;;;4936795;29;20039;-75
2021/05/21 03:10:30;;;;;;;10.65;2.63;;;12.20;94.30;;;;;;4936255;29;20075;-73
2021/05/21 03:12:56;;;;;;;9.10;2.47;;;12.20;94.20;;;;;;4935594;29;20356;-74
2021/05/21 03:15:23;;;;;;;7.68;2.42;;;12.10;94.70;;;;;;4936268;29;20052;-75
2021/05/21 03:17:49;;;;;;;9.52;2.05;;;12.00;94.90;;;;;;4936657;29;20476;-75
2021/05/21 03:20:15;;;;;;;11.73;2.08;;;12.00;95.20;;;;;;4935740;29;20131;-75
2021/05/21 03:22:41;;;;;;;7.47;2.22;;;11.90;95.30;;;;;;4935272;29;20033;-75
2021/05/21 03:25:08;;;;;;;12.00;2.17;;;11.90;95.50;;;;;;4936532;29;20034;-75
2021/05/21 03:27:34;;;;;;;11.02;1.83;;;11.90;95.50;;;;;;4934504;29;20020;-75
2021/05/21 03:30:00;;;;;;;4.47;1.40;;;11.90;95.70;;;;;;4934775;29;20060;-75
2021/05/21 03:32:27;;;;;;;4.93;1.92;;;11.90;95.70;;;;;;4935772;29;20028;-75
2021/05/21 03:34:53;;;;;;;14.30;2.38;;;11.90;95.90;;;;;;4935976;29;20031;-75
2021/05/21 03:37:19;;;;;;;8.27;1.98;;;11.90;95.80;;;;;;4934980;29;20432;-75
2021/05/21 03:39:46;;;;;;;6.60;1.90;;;11.90;95.90;;;;;;4935990;29;20028;-74
2021/05/21 03:42:13;;;;;;;10.82;2.15;;;11.90;95.90;;;;;;4935813;29;20043;-74
2021/05/21 03:44:39;;;;;;;17.83;2.47;;;11.80;96.10;;;;;;4935697;29;20432;-75
2021/05/21 03:47:04;;;;;;;7.10;1.95;;;11.80;96.20;;;;;;4934756;29;20043;-74
2021/05/21 03:49:30;;;;;;;13.43;2.28;;;11.80;96.40;;;;;;4934175;29;20477;-75
2021/05/21 03:51:56;;;;;;;8.82;2.20;;;11.80;96.50;;;;;;4935767;29;20031;-74
2021/05/21 03:54:22;;;;;;;11.48;2.58;;;11.90;96.50;;;;;;4933702;29;20050;-75
2021/05/21 03:56:48;;;;;;;8.52;2.38;;;11.90;96.50;;;;;;4950183;29;20031;-75
2021/05/21 03:59:14;;;;;;;8.75;2.03;;;11.90;96.60;;;;;;4934049;29;20035;-75
2021/05/21 04:01:40;;;;;;;10.07;3.08;;;11.80;96.60;;;;;;4918968;29;20035;-76
2021/05/21 04:04:06;;;;;;;14.77;2.42;;;11.80;96.70;;;;;;4944123;29;20023;-76
2021/05/21 04:06:32;;;;;;;6.90;2.20;;;11.70;96.80;;;;;;4943986;29;20028;-76
2021/05/21 04:08:59;;;;;;;6.20;2.33;;;11.80;97.00;;;;;;4937626;29;20039;-75
2021/05/21 04:11:25;;;;;;;9.65;2.15;;;11.80;97.00;;;;;;4935053;29;20035;-76
2021/05/21 04:13:51;;;;;;;8.50;2.22;;;11.80;96.90;;;;;;4934260;29;20408;-76
2021/05/21 04:16:16;;;;;;;8.73;2.10;;;11.80;97.00;;;;;;4934669;29;20020;-76
2021/05/21 04:18:42;;;;;;;10.75;2.47;;;11.80;96.70;;;;;;4935442;29;20024;-75
2021/05/21 04:21:08;;;;;;;11.00;2.85;;;11.80;96.80;;;;;;4935672;29;20035;-75
2021/05/21 04:23:39;;;;;;;12.23;2.78;;;11.80;96.90;;;;;;4934943;29;20357;-75
2021/05/21 04:26:05;;;;;;;21.30;2.65;;;11.80;96.70;;;;;;4934346;29;20038;-76
2021/05/21 04:28:30;;;;;;;11.98;2.47;;;11.80;96.70;;;;;;4934794;29;20440;-76
2021/05/21 04:30:56;;;;;;;10.45;2.20;;;11.80;96.80;;;;;;4934037;29;20032;-75
2021/05/21 04:33:22;;;;;;;9.35;2.30;;;11.90;96.90;;;;;;4934386;29;20078;-76
2021/05/21 04:35:47;;;;;;;14.40;2.33;;;11.90;96.80;;;;;;4935343;29;20027;-76
2021/05/21 04:38:13;;;;;;;11.57;2.83;;;11.90;96.70;;;;;;4933924;29;20035;-76
2021/05/21 04:40:39;;;;;;;13.10;2.35;;;12.00;96.80;;;;;;4934361;29;20377;-76
2021/05/21 04:43:04;;;;;;;14.05;2.17;;;12.10;96.80;;;;;;4935079;29;20023;-75
2021/05/21 04:45:30;;;;;;;10.63;2.10;;;12.10;96.70;;;;;;4933126;29;20100;-76
2021/05/21 04:47:56;;;;;;;7.85;1.85;;;12.10;96.70;;;;;;4933490;29;20486;-74
2021/05/21 04:50:21;;;;;;;7.72;2.78;;;12.20;96.80;;;;;;4930039;29;20031;-75
2021/05/21 04:52:49;;;;;;;11.95;2.55;;;12.20;96.70;;;;;;4915497;29;20044;-76
2021/05/21 04:55:15;;;;;;;8.10;2.08;;;12.20;96.80;;;;;;4931121;29;20050;-75
2021/05/21 04:57:40;;;;;;;13.93;2.03;;;12.20;96.60;;;;;;4931865;29;20114;-75
2021/05/21 05:00:07;;;;;;;8.75;2.13;;;12.20;96.70;;;;;;4932442;29;20107;-76
2021/05/21 05:02:33;;;;;;;9.27;3.03;;;12.20;96.80;;;;;;4950434;28;20035;-77
2021/05/21 05:04:58;;;;;;;13.00;3.00;;;12.20;96.70;;;;;;4949941;29;20448;-77
2021/05/21 05:07:24;;;;;;;10.32;2.42;;;12.20;96.50;;;;;;4966073;28;20072;-77
2021/05/21 05:09:49;;;;;;;22.40;3.28;;;12.30;96.50;;;;;;4951898;29;20435;-78
2021/05/21 05:12:15;;;;;;;13.93;2.50;;;12.30;96.40;;;;;;4950678;29;20020;-78
2021/05/21 05:14:41;;;;;;;13.07;2.90;;;12.30;96.30;;;;;;4964845;28;20042;-77
2021/05/21 05:17:06;;;;;;;11.13;3.33;;;12.30;96.30;;;;;;4966134;28;20055;-73
2021/05/21 05:19:32;;;;;;;10.48;2.70;;;12.30;96.20;;;;;;4951851;29;20023;-76
2021/05/21 05:21:58;;;;;;;13.23;2.85;;;12.30;96.20;;;;;;4954045;29;20511;-75
2021/05/21 05:24:25;;;;;;;11.15;3.00;;;12.30;96.20;;;;;;4953206;29;20024;-77
2021/05/21 05:26:51;;;;;;;8.25;2.63;;;12.30;96.30;;;;;;4953750;29;20034;-76
2021/05/21 05:29:17;;;;;;;12.82;3.42;;;12.30;96.40;;;;;;4953267;29;20488;-76
2021/05/21 05:31:46;;;;;;;14.75;3.35;;;12.30;96.30;;;;;;4952777;29;20074;-76
2021/05/21 05:34:13;;;;;;;10.63;3.85;;;12.30;96.40;;;;;;4968550;28;20024;-76
2021/05/21 05:36:39;;;;;;;16.65;3.85;;;12.30;96.20;;;;;;4953243;29;20449;-75
2021/05/21 05:39:08;;;;;;;11.30;2.95;;;12.30;96.10;;;;;;4953784;29;20034;-76
2021/05/21 05:41:34;;;;;;;14.60;2.75;;;12.20;95.90;;;;;;4953253;29;20409;-76
2021/05/21 05:44:00;;;;;;;16.73;3.67;;;12.20;95.70;;;;;;4953796;29;20027;-76
2021/05/21 05:46:25;;;;;;;14.43;3.00;;;12.20;95.60;;;;;;4953091;29;20046;-75
2021/05/21 05:48:51;;;;;;;7.25;2.67;;;12.30;95.60;;;;;;4954119;29;20035;-76
2021/05/21 05:51:17;;;;;;;15.10;2.80;;;12.30;95.50;;;;;;4953804;29;20027;-76
2021/05/21 05:53:43;;;;;;;15.23;2.95;;;12.30;95.40;;;;;;4967488;28;20047;-75
2021/05/21 05:56:09;;;;;;;10.23;2.85;;;12.30;95.50;;;;;;4953453;29;20027;-76
2021/05/21 05:58:35;;;;;;;10.15;2.40;;;12.30;95.20;;;;;;4967383;28;20137;-75
2021/05/21 06:01:01;;;;;;;10.80;2.47;;;12.40;95.10;;;;;;4953512;29;20181;-76
2021/05/21 06:03:30;;;;;;;15.85;2.92;;;12.40;94.80;;;;;;4952785;29;20039;-75
2021/05/21 06:05:56;;;;;;;13.90;2.60;;;12.40;94.60;;;;;;4953691;29;20024;-75
2021/05/21 06:08:22;;;;;;;13.88;2.88;;;12.40;94.30;;;;;;4953555;29;20090;-76
2021/05/21 06:10:50;;;;;;;11.25;2.55;;;12.40;94.20;;;;;;4953429;29;20024;-76
2021/05/21 06:13:15;;;;;;;18.33;2.97;;;12.50;94.30;;;;;;4953576;29;20440;-76
2021/05/21 06:15:41;;;;;;;12.90;3.00;;;12.50;93.70;;;;;;4951352;29;20097;-76
2021/05/21 06:18:07;;;;;;;15.85;2.88;;;12.50;93.80;;;;;;4953259;29;20519;-76
2021/05/21 06:20:34;;;;;;;12.00;2.47;;;12.50;93.00;;;;;;4952657;29;20423;-75
2021/05/21 06:23:03;;;;;;;10.52;2.20;;;12.60;92.90;;;;;;4953151;29;20027;-76
2021/05/21 06:28:26;;;;;;;10.40;2.13;;;12.60;92.40;;;;;;4940831;28;20043;-76
2021/05/21 06:30:53;;;;;;;9.25;2.30;;;12.60;92.50;;;;;;4956615;29;20086;-76
2021/05/21 06:33:19;;;;;;;10.98;2.08;;;12.70;92.40;;;;;;4956687;29;20039;-75
2021/05/21 06:35:46;;;;;;;9.35;2.25;;;12.70;92.50;;;;;;4956000;29;20101;-76
2021/05/21 06:38:12;;;;;;;11.38;2.45;;;12.70;92.20;;;;;;4956984;29;20030;-76
2021/05/21 06:40:38;;;;;;;15.00;2.40;;;12.70;91.80;;;;;;4955927;29;20035;-75
2021/05/21 06:43:12;;;;;;;12.98;2.00;;;12.80;91.80;;;;;;4956066;29;20023;-76
2021/05/21 06:45:39;;;;;;;11.27;2.05;;;12.90;91.60;;;;;;4955833;29;20027;-74
2021/05/21 06:48:05;;;;;;;6.30;2.40;;;12.90;91.40;;;;;;4956345;29;20064;-75
2021/05/21 06:50:31;;;;;;;15.25;2.70;;;12.90;90.90;;;;;;4955473;29;20030;-76
2021/05/21 06:52:56;;;;;;;13.43;2.03;;;13.00;90.20;;;;;;4955892;29;20444;-76
2021/05/21 06:55:22;;;;;;;13.77;1.75;;;13.00;88.60;;;;;;4954771;28;20089;-75
2021/05/21 06:57:48;;;;;;;12.32;1.92;;;13.10;88.00;;;;;;4955672;29;20521;-74
2021/05/21 07:00:14;;;;;;;10.35;2.40;;;13.10;88.50;;;;;;4956146;29;20110;-74
2021/05/21 07:02:40;;;;;;;15.43;2.80;;;13.20;85.40;;;;;;4954152;29;20023;-76
2021/05/21 07:05:06;;;;;;;8.27;1.92;;;13.20;85.50;;;;;;4956105;29;20019;-75
2021/05/21 07:07:33;;;;;;;8.63;1.75;;;13.30;84.20;;;;;;4955427;29;20031;-76
2021/05/21 07:09:59;;;;;;;12.02;2.65;;;13.30;84.40;;;;;;4956201;29;20031;-76
2021/05/21 07:12:25;;;;;;;8.57;1.83;;;13.30;84.70;;;;;;4954686;29;20024;-74
2021/05/21 07:14:51;;;;;;;7.00;1.85;;;13.40;84.40;;;;;;4955592;29;20039;-75
2021/05/21 07:17:17;;;;;;;10.95;1.92;;;13.40;84.10;;;;;;4955919;29;20102;-76
2021/05/21 07:19:42;;;;;;;7.35;2.15;;;13.50;83.20;;;;;;4937852;29;20073;-76
2021/05/21 07:22:08;;;;;;;9.50;2.00;;;13.50;83.10;;;;;;4954428;29;20054;-75
2021/05/21 07:24:35;;;;;;;10.90;2.60;;;13.60;82.30;;;;;;4954791;29;20038;-76
2021/05/21 07:27:00;;;;;;;7.57;2.17;;;13.60;81.30;;;;;;4955674;29;20106;-76
2021/05/21 07:29:26;;;;;;;8.27;1.90;;;13.70;82.20;;;;;;4955092;29;20102;-76
2021/05/21 07:31:52;;;;;;;11.25;2.65;;;13.70;81.30;;;;;;4954772;29;20023;-76
2021/05/21 07:34:19;;;;;;;9.70;1.77;;;13.70;80.60;;;;;;4955801;29;20162;-76
2021/05/21 07:36:44;;;;;;;6.47;1.70;;;13.70;79.50;;;;;;4954933;29;20029;-76
2021/05/21 07:39:10;;;;;;;7.80;2.05;;;13.70;78.40;;;;;;4953200;28;20388;-76
2021/05/21 07:41:36;;;;;;;10.75;2.70;;;13.70;78.50;;;;;;4954658;29;20028;-74
2021/05/21 07:44:01;;;;;;;9.65;1.60;;;13.80;78.90;;;;;;4955232;29;20069;-76
2021/05/21 07:46:28;;;;;;;15.10;2.88;;;13.90;79.00;;;;;;4955046;29;20023;-76
2021/05/21 07:48:54;;;;;;;8.77;2.00;;;14.10;77.80;;;;;;4954532;29;20031;-75
2021/05/21 07:51:20;;;;;;;10.98;1.90;;;14.20;78.10;;;;;;4955204;29;20026;-75
2021/05/21 07:53:47;;;;;;;9.27;1.50;;;14.20;76.90;;;;;;4954386;28;20134;-76
2021/05/21 07:56:13;;;;;;;10.98;2.08;;;14.30;77.90;;;;;;4955354;29;20160;-76
2021/05/21 07:58:38;;;;;;;6.57;2.40;;;14.40;78.20;;;;;;4953296;29;20052;-75
2021/05/21 08:01:04;;;;;;;6.25;2.10;;;14.40;78.00;;;;;;4937811;29;20042;-77
2021/05/21 08:03:30;;;;;;;12.82;2.05;;;14.40;77.10;;;;;;4955018;29;20114;-75
2021/05/21 08:06:00;;;;;;;6.00;2.20;;;14.40;78.80;;;;;;4954656;29;20066;-75
2021/05/21 08:08:26;;;;;;;5.30;2.00;;;14.20;82.60;;;;;;4937682;29;20047;-73
2021/05/21 08:10:57;;;;;;;3.35;1.63;;;13.80;84.30;;;;;;4953020;29;20042;-74
2021/05/21 08:13:23;;;;;;;6.57;1.65;;;13.40;87.70;;;;;;4955262;29;20117;-75
2021/05/21 08:15:49;;;;;;;4.55;1.30;;;12.90;90.20;;;;;;4953014;29;20027;-75
2021/05/21 08:18:16;;;;;;;3.08;1.10;;;12.50;91.10;;;;;;4953465;29;20071;-75
2021/05/21 08:20:43;;;;;;;7.20;1.40;;;12.30;91.80;;;;;;4954366;29;20031;-75
2021/05/21 08:23:09;;;;;;;9.60;1.58;;;12.20;92.20;;;;;;4954665;29;20436;-75
2021/05/21 08:25:35;;;;;;;2.95;1.70;;;12.20;92.30;;;;;;4953979;29;20059;-75
2021/05/21 08:28:00;;;;;;;5.07;1.40;;;12.20;92.40;;;;;;4954278;29;20070;-76
2021/05/21 08:30:26;;;;;;;2.55;1.23;;;12.00;92.40;;;;;;4954662;29;20023;-75
2021/05/21 08:32:52;;;;;;;2.97;1.30;;;11.90;92.30;;;;;;4954183;29;20031;-76
2021/05/21 08:35:19;;;;;;;11.32;2.08;;;11.90;92.60;;;;;;4953157;29;20034;-76
2021/05/21 08:37:45;;;;;;;6.97;1.80;;;12.00;92.80;;;;;;4953865;29;20105;-76
2021/05/21 08:40:14;;;;;;;5.05;1.90;;;12.00;92.90;;;;;;4954397;29;20175;-76
2021/05/21 08:42:40;;;;;;;6.38;1.98;;;12.10;92.50;;;;;;4952476;29;20464;-75
2021/05/21 08:45:13;;;;;;;8.75;2.65;;;12.20;92.30;;;;;;4954000;29;20388;-76
2021/05/21 08:47:39;;;;;;;13.77;3.70;;;12.30;92.10;;;;;;4953759;29;20024;-76
2021/05/21 08:50:10;;;;;;;9.45;1.90;;;12.40;92.00;;;;;;4952627;28;20171;-75
2021/05/21 08:52:36;;;;;;;6.20;2.22;;;12.50;91.70;;;;;;4952471;29;20023;-76
2021/05/21 08:55:04;;;;;;;9.52;2.38;;;12.60;91.60;;;;;;4954309;28;20059;-77
2021/05/21 08:57:30;;;;;;;10.75;2.33;;;12.60;91.10;;;;;;4952572;29;20033;-76
2021/05/21 08:59:56;;;;;;;10.63;3.15;;;12.70;91.40;;;;;;4953328;29;20464;-75
2021/05/21 09:02:27;;;;;;;10.80;2.40;;;12.90;91.30;;;;;;4952599;29;20031;-76
2021/05/21 09:04:58;;;;;;;11.80;2.30;;;13.20;91.20;;;;;;4953525;29;20031;-76
2021/05/21 09:07:24;;;;;;;;;;;13.40;90.70;;;;;;4954533;29;20029;-75
2021/05/21 09:09:50;;;;;;;7.35;1.90;;;13.50;89.20;;;;;;4953691;29;19906;-76
2021/05/21 09:12:18;;;;;;;8.48;2.08;;;13.60;89.00;;;;;;4936692;29;20035;-75
2021/05/21 09:15:05;;;;;;;7.43;1.95;;;13.70;84.50;;;;;;4952213;29;20486;-76
2021/05/21 09:17:32;;;;;;;6.30;1.65;;;13.80;85.30;;;;;;4953969;29;20034;-76
2021/05/21 09:19:58;;;;;;;11.85;2.05;;;14.00;84.30;;;;;;4935937;29;20578;-76
2021/05/21 09:22:23;;;;;;;6.50;2.10;;;14.10;83.60;;;;;;4936481;29;20122;-76
2021/05/21 09:24:49;;;;;;;7.32;2.20;;;14.10;82.60;;;;;;4953003;29;20031;-76
2021/05/21 09:27:19;;;;;;;6.05;1.83;;;13.90;85.20;;;;;;4953718;29;20047;-75
2021/05/21 09:29:47;;;;;;;7.93;1.52;;;13.40;89.50;;;;;;4952897;29;20078;-74
2021/05/21 09:32:33;;;;;;;10.85;2.00;;;12.90;91.40;;;;;;4953842;29;20023;-74
2021/05/21 09:34:59;;;;;;;7.97;2.00;;;12.60;93.10;;;;;;4953225;29;20034;-75
2021/05/21 09:37:26;;;;;;;8.13;1.90;;;12.40;93.80;;;;;;4953702;29;20023;-74
2021/05/21 09:40:06;;;;;;;10.38;2.30;;;12.30;94.30;;;;;;4953057;29;20031;-75
2021/05/21 09:43:02;;;;;;;9.73;2.30;;;12.20;94.50;;;;;;4936372;29;20046;-76
2021/05/21 09:45:40;;;;;;;11.15;2.55;;;12.00;95.10;;;;;;4931706;29;20043;-76
2021/05/21 09:48:12;;;;;;;6.82;2.30;;;12.00;95.30;;;;;;4953665;29;20028;-76
2021/05/21 09:50:43;;;;;;;10.05;2.45;;;11.90;95.50;;;;;;4953773;29;20019;-75
2021/05/21 09:53:09;;;;;;;14.55;2.65;;;12.00;95.60;;;;;;4953796;28;20083;-76
2021/05/21 09:55:40;;;;;;;8.32;2.60;;;12.10;95.70;;;;;;4953622;29;20027;-76
2021/05/21 09:58:07;;;;;;;11.75;2.83;;;12.20;95.60;;;;;;4936312;29;20016;-75
2021/05/21 10:00:34;;;;;;;14.40;3.10;;;12.40;95.60;;;;;;4953378;28;20046;-76
2021/05/21 10:03:01;;;;;;;10.73;3.40;;;12.50;95.50;;;;;;4956057;29;20115;-76
2021/05/21 10:05:27;;;;;;;16.15;3.70;;;12.70;95.30;;;;;;4957232;29;20024;-75
2021/05/21 10:07:54;;;;;;;10.18;2.92;;;12.80;95.20;;;;;;4955364;29;20415;-75
2021/05/21 10:10:23;;;;;;;14.90;3.70;;;12.90;94.70;;;;;;4956707;29;20531;-75
2021/05/21 10:12:49;;;;;;;10.75;3.22;;;13.00;94.60;;;;;;4956436;29;20028;-76
2021/05/21 10:15:15;;;;;;;10.32;3.15;;;13.10;94.40;;;;;;4957018;29;20070;-75
2021/05/21 10:17:43;;;;;;;9.73;3.55;;;13.20;94.50;;;;;;4956924;29;20068;-75
2021/05/21 10:20:12;;;;;;;12.25;3.35;;;13.20;94.20;;;;;;4939528;29;20038;-76
2021/05/21 10:22:40;;;;;;;13.02;3.65;;;13.20;93.90;;;;;;4956772;29;20043;-77
2021/05/21 10:25:20;;;;;;;13.52;3.53;;;13.20;93.60;;;;;;4956522;29;20484;-76
2021/05/21 10:27:50;;;;;;;15.00;3.17;;;13.20;93.80;;;;;;4956327;29;20479;-77
2021/05/21 10:30:19;;;;;;;14.75;4.10;;;13.30;93.90;;;;;;4956890;29;20086;-76
2021/05/21 10:32:45;;;;;;;11.40;2.90;;;13.30;94.00;;;;;;4956456;29;20105;-76
2021/05/21 10:35:17;;;;;;;6.65;2.45;;;13.40;93.50;;;;;;4939756;29;20023;-77
2021/05/21 10:37:44;;;;;;;9.35;2.95;;;13.60;93.20;;;;;;4956646;29;20031;-76
2021/05/21 10:40:25;;;;;;;9.93;3.17;;;13.70;93.00;;;;;;4956436;29;20491;-75
2021/05/21 10:42:52;;;;;;;12.68;3.00;;;13.90;92.50;;;;;;4955992;29;20037;-76
2021/05/21 10:45:25;;;;;;;9.00;2.80;;;13.90;92.30;;;;;;4956422;29;20024;-76
2021/05/21 10:48:06;;;;;;;8.95;2.70;;;14.10;92.00;;;;;;4955791;29;20030;-76
2021/05/21 10:50:39;;;;;;;;;;;14.10;91.00;;;;;;4956930;29;20115;-76
2021/05/21 10:53:08;;;;;;;7.35;2.60;;;14.10;90.20;;;;;;4955163;28;19917;-75
2021/05/21 10:55:47;;;;;;;8.20;2.05;;;14.10;90.40;;;;;;4939103;29;20031;-76
2021/05/21 10:58:29;;;;;;;5.65;1.60;;;14.20;90.20;;;;;;4938770;29;20361;-76
2021/05/21 11:01:18;;;;;;;6.30;1.52;;;14.20;89.90;;;;;;4938459;29;20031;-75
2021/05/21 11:03:56;;;;;;;6.25;2.00;;;14.20;90.10;;;;;;4956229;29;20341;-75
2021/05/21 11:06:23;;;;;;;7.20;2.53;;;14.20;90.10;;;;;;4939007;29;20027;-75
2021/05/21 11:08:49;;;;;;;9.18;2.30;;;14.10;90.50;;;;;;4954170;29;20435;-76
2021/05/21 11:11:15;;;;;;;8.95;2.28;;;14.20;90.40;;;;;;4954997;29;20021;-75
2021/05/21 11:13:41;;;;;;;7.05;2.15;;;14.20;90.70;;;;;;4954713;28;20027;-75
2021/05/21 11:16:12;;;;;;;7.47;2.20;;;14.20;90.60;;;;;;4955124;29;20137;-75
2021/05/21 11:18:47;;;;;;;10.40;2.45;;;14.20;90.60;;;;;;4956041;29;20028;-76
2021/05/21 11:21:18;;;;;;;9.50;2.22;;;14.30;90.90;;;;;;4956078;29;20027;-75
2021/05/21 11:23:46;;;;;;;8.57;1.92;;;14.30;91.10;;;;;;4955802;29;20038;-76
2021/05/21 11:26:16;;;;;;;7.57;2.42;;;14.40;91.50;;;;;;4955986;29;20035;-75
2021/05/21 11:28:42;;;;;;;9.68;2.20;;;14.60;91.50;;;;;;4955828;29;20123;-76
2021/05/21 11:31:25;;;;;;;12.88;2.50;;;14.80;91.10;;;;;;4954797;29;20055;-75
2021/05/21 11:33:58;;;;;;;8.88;2.38;;;14.90;91.20;;;;;;4954989;29;20023;-75
2021/05/21 11:36:24;;;;;;;12.88;3.38;;;15.20;91.20;;;;;;4954100;29;20059;-75
2021/05/21 11:38:50;;;;;;;7.78;2.13;;;15.30;90.70;;;;;;4953156;29;20035;-75
2021/05/21 11:41:18;;;;;;;11.73;2.22;;;15.20;90.20;;;;;;4955586;29;20023;-75
2021/05/21 11:43:46;;;;;;;19.92;3.17;;;15.10;90.50;;;;;;4955881;29;20057;-74
2021/05/21 11:46:22;;;;;;;13.02;2.67;;;14.60;91.00;;;;;;4954946;29;20027;-75
2021/05/21 11:48:49;;;;;;;11.18;2.38;;;13.90;92.30;;;;;;4938170;29;20038;-75
2021/05/21 11:51:22;;;;;;;14.10;2.88;;;13.50;93.70;;;;;;4955389;29;20062;-75
2021/05/21 11:54:02;;;;;;;7.28;2.42;;;13.20;94.70;;;;;;4957245;28;20546;-75
2021/05/21 11:56:36;;;;;;;12.70;2.35;;;13.00;95.20;;;;;;4938136;29;20031;-75
2021/05/21 11:59:09;;;;;;;8.00;2.63;;;12.80;95.30;;;;;;4954111;29;20027;-75
2021/05/21 12:01:36;;;;;;;13.40;2.60;;;12.60;95.80;;;;;;4955027;29;20067;-75
2021/05/21 12:04:03;;;;;;;11.95;2.35;;;12.70;96.00;;;;;;4954404;29;20035;-76
2021/05/21 12:06:30;;;;;;;8.75;2.50;;;12.80;96.10;;;;;;4955060;29;20031;-76
2021/05/21 12:08:56;;;;;;;10.35;2.65;;;12.90;96.10;;;;;;4954378;29;20032;-74
2021/05/21 12:11:23;;;;;;;12.27;3.00;;;13.00;96.10;;;;;;4953556;29;20035;-75
2021/05/21 12:13:49;;;;;;;13.38;3.63;;;13.30;95.90;;;;;;4954996;29;20110;-75
2021/05/21 12:16:18;;;;;;;10.73;2.80;;;13.40;95.70;;;;;;4954720;29;20034;-75
2021/05/21 12:18:47;;;;;;;12.18;3.22;;;13.60;95.60;;;;;;4953207;29;20515;-75
2021/05/21 12:21:25;;;;;;;16.40;3.50;;;13.70;95.40;;;;;;4954067;29;20034;-76
2021/05/21 12:23:52;;;;;;;11.98;4.05;;;14.00;95.30;;;;;;4936745;28;20114;-76
2021/05/21 12:26:20;;;;;;;10.15;3.40;;;14.30;95.20;;;;;;4954947;29;20024;-75
2021/05/21 12:28:47;;;;;;;10.25;3.67;;;14.40;94.80;;;;;;4954637;29;20027;-76
2021/05/21 12:31:13;;;;;;;10.85;3.70;;;14.60;94.40;;;;;;4936390;29;20517;-76
2021/05/21 12:33:42;;;;;;;13.98;4.18;;;14.80;94.30;;;;;;4954384;29;20050;-75
2021/05/21 12:36:17;;;;;;;12.52;3.78;;;15.00;94.30;;;;;;4936576;29;20027;-75
2021/05/21 12:38:54;;;;;;;9.95;2.60;;;15.20;94.10;;;;;;4952941;29;20143;-76
2021/05/21 12:41:37;;;;;;;12.85;3.60;;;15.40;93.80;;;;;;4960498;28;20027;-75
2021/05/21 12:44:13;;;;;;;12.55;3.58;;;15.50;93.80;;;;;;4944530;28;20456;-76
2021/05/21 12:47:00;;;;;;;9.60;3.08;;;15.50;93.10;;;;;;4935767;29;20113;-76
2021/05/21 12:49:28;;;;;;;7.85;2.40;;;15.30;93.00;;;;;;4936818;29;20027;-76